sensor_id;sensor_type;location;lat;lon;timestamp;pressure;altitude;pressure_sealevel;temperature;humidity
39887;BME280;25559;44.738;20.980;2022-09-01T00:01:56;100350.81;;;23.01;nan
39887;BME280;25559;44.738;20.980;2022-09-01T00:04:25;100352.72;;;22.99;nan
39887;BME280;25559;44.738;20.980;2022-09-01T00:06:52;100352.94;;;22.96;nan
39887;BME280;25559;44.738;20.980;2022-09-01T00:09:20;100345.19;;;22.93;nan
39887;BME280;25559;44.738;20.980;2022-09-01T00:11:49;100346.19;;;22.92;nan
39887;BME280;25559;44.738;20.980;2022-09-01T00:14:19;100346.19;;;22.92;nan
39887;BME280;25559;44.738;20.980;2022-09-01T00:16:45;100349.53;;;22.94;nan
39887;BME280;25559;44.738;20.980;2022-09-01T00:19:10;100370.69;;;22.94;nan
39887;BME280;25559;44.738;20.980;2022-09-01T00:21:40;100350.19;;;22.97;nan
39887;BME280;25559;44.738;20.980;2022-09-01T00:24:06;100351.97;;;22.97;nan
39887;BME280;25559;44.738;20.980;2022-09-01T00:26:32;100376.63;;;22.97;nan
39887;BME280;25559;44.738;20.980;2022-09-01T00:28:58;100349.53;;;22.94;nan
39887;BME280;25559;44.738;20.980;2022-09-01T00:31:24;100376.19;;;22.91;nan
39887;BME280;25559;44.738;20.980;2022-09-01T00:33:50;100347.44;;;22.86;nan
39887;BME280;25559;44.738;20.980;2022-09-01T00:36:17;100344.69;;;22.87;nan
39887;BME280;25559;44.738;20.980;2022-09-01T00:38:43;100345.75;;;22.85;nan
39887;BME280;25559;44.738;20.980;2022-09-01T00:41:09;100338.91;;;22.82;nan
39887;BME280;25559;44.738;20.980;2022-09-01T00:43:58;100352.13;;;22.82;nan
39887;BME280;25559;44.738;20.980;2022-09-01T00:46:33;100345.13;;;22.81;nan
39887;BME280;25559;44.738;20.980;2022-09-01T00:49:03;100342.59;;;22.80;nan
39887;BME280;25559;44.738;20.980;2022-09-01T00:51:32;100341.00;;;22.77;nan
39887;BME280;25559;44.738;20.980;2022-09-01T00:53:59;100343.66;;;22.77;nan
39887;BME280;25559;44.738;20.980;2022-09-01T00:56:26;100348.19;;;22.75;nan
39887;BME280;25559;44.738;20.980;2022-09-01T00:58:53;100346.63;;;22.73;nan
39887;BME280;25559;44.738;20.980;2022-09-01T01:01:19;100343.25;;;22.70;nan
39887;BME280;25559;44.738;20.980;2022-09-01T01:03:45;100351.28;;;22.69;nan
39887;BME280;25559;44.738;20.980;2022-09-01T01:06:12;100359.31;;;22.67;nan
39887;BME280;25559;44.738;20.980;2022-09-01T01:08:43;100356.78;;;22.66;nan
39887;BME280;25559;44.738;20.980;2022-09-01T01:11:14;100346.41;;;22.63;nan
39887;BME280;25559;44.738;20.980;2022-09-01T01:13:53;100337.75;;;22.61;nan
39887;BME280;25559;44.738;20.980;2022-09-01T01:16:22;100343.88;;;22.61;nan
39887;BME280;25559;44.738;20.980;2022-09-01T01:18:49;100345.78;;;22.59;nan
39887;BME280;25559;44.738;20.980;2022-09-01T01:21:38;100353.59;;;22.61;nan
39887;BME280;25559;44.738;20.980;2022-09-01T01:24:28;100347.47;;;22.60;nan
39887;BME280;25559;44.738;20.980;2022-09-01T01:26:56;100348.41;;;22.59;nan
39887;BME280;25559;44.738;20.980;2022-09-01T01:29:35;100356.22;;;22.61;nan
39887;BME280;25559;44.738;20.980;2022-09-01T01:32:05;100353.69;;;22.59;nan
39887;BME280;25559;44.738;20.980;2022-09-01T01:34:38;100355.50;;;22.59;nan
39887;BME280;25559;44.738;20.980;2022-09-01T01:37:11;100351.16;;;22.58;nan
39887;BME280;25559;44.738;20.980;2022-09-01T01:39:40;100358.25;;;22.57;nan
39887;BME280;25559;44.738;20.980;2022-09-01T01:42:08;100351.25;;;22.56;nan
39887;BME280;25559;44.738;20.980;2022-09-01T01:44:35;100345.16;;;22.56;nan
39887;BME280;25559;44.738;20.980;2022-09-01T01:47:05;100356.44;;;22.58;nan
39887;BME280;25559;44.738;20.980;2022-09-01T01:49:34;100381.28;;;22.55;nan
39887;BME280;25559;44.738;20.980;2022-09-01T01:52:01;100354.00;;;22.54;nan
39887;BME280;25559;44.738;20.980;2022-09-01T01:54:30;100358.66;;;22.51;nan
39887;BME280;25559;44.738;20.980;2022-09-01T01:56:58;100353.38;;;22.51;nan
39887;BME280;25559;44.738;20.980;2022-09-01T01:59:24;100350.75;;;22.51;nan
39887;BME280;25559;44.738;20.980;2022-09-01T02:01:51;100352.56;;;22.50;nan
39887;BME280;25559;44.738;20.980;2022-09-01T02:04:18;100345.56;;;22.49;nan
39887;BME280;25559;44.738;20.980;2022-09-01T02:06:45;100346.41;;;22.50;nan
39887;BME280;25559;44.738;20.980;2022-09-01T02:09:15;100335.94;;;22.48;nan
39887;BME280;25559;44.738;20.980;2022-09-01T02:11:41;100343.03;;;22.48;nan
39887;BME280;25559;44.738;20.980;2022-09-01T02:14:08;100339.56;;;22.47;nan
39887;BME280;25559;44.738;20.980;2022-09-01T02:16:35;100338.59;;;22.48;nan
39887;BME280;25559;44.738;20.980;2022-09-01T02:19:05;100339.66;;;22.46;nan
39887;BME280;25559;44.738;20.980;2022-09-01T02:21:32;100364.59;;;22.42;nan
39887;BME280;25559;44.738;20.980;2022-09-01T02:24:01;100340.00;;;22.41;nan
39887;BME280;25559;44.738;20.980;2022-09-01T02:26:36;100343.47;;;22.42;nan
39887;BME280;25559;44.738;20.980;2022-09-01T02:29:07;100347.81;;;22.43;nan
39887;BME280;25559;44.738;20.980;2022-09-01T02:31:39;100353.09;;;22.43;nan
39887;BME280;25559;44.738;20.980;2022-09-01T02:34:07;100346.00;;;22.43;nan
39887;BME280;25559;44.738;20.980;2022-09-01T02:36:43;100349.38;;;22.45;nan
39887;BME280;25559;44.738;20.980;2022-09-01T02:39:20;100343.25;;;22.45;nan
39887;BME280;25559;44.738;20.980;2022-09-01T02:41:48;100362.34;;;22.48;nan
39887;BME280;25559;44.738;20.980;2022-09-01T02:44:15;100342.00;;;22.50;nan
39887;BME280;25559;44.738;20.980;2022-09-01T02:46:45;100342.00;;;22.50;nan
39887;BME280;25559;44.738;20.980;2022-09-01T02:49:15;100338.69;;;22.47;nan
39887;BME280;25559;44.738;20.980;2022-09-01T02:51:48;100344.63;;;22.50;nan
39887;BME280;25559;44.738;20.980;2022-09-01T02:54:15;100342.81;;;22.51;nan
39887;BME280;25559;44.738;20.980;2022-09-01T02:56:46;100340.91;;;22.53;nan
39887;BME280;25559;44.738;20.980;2022-09-01T02:59:17;100341.66;;;22.55;nan
39887;BME280;25559;44.738;20.980;2022-09-01T03:01:50;100337.22;;;22.56;nan
39887;BME280;25559;44.738;20.980;2022-09-01T03:04:17;100331.84;;;22.57;nan
39887;BME280;25559;44.738;20.980;2022-09-01T03:06:44;100338.81;;;22.58;nan
39887;BME280;25559;44.738;20.980;2022-09-01T03:09:14;100335.31;;;22.58;nan
39887;BME280;25559;44.738;20.980;2022-09-01T03:11:43;100344.31;;;22.55;nan
39887;BME280;25559;44.738;20.980;2022-09-01T03:14:10;100330.03;;;22.58;nan
39887;BME280;25559;44.738;20.980;2022-09-01T03:16:37;100331.84;;;22.57;nan
39887;BME280;25559;44.738;20.980;2022-09-01T03:19:05;100333.53;;;22.58;nan
39887;BME280;25559;44.738;20.980;2022-09-01T03:21:36;100343.22;;;22.58;nan
39887;BME280;25559;44.738;20.980;2022-09-01T03:24:04;100346.84;;;22.57;nan
39887;BME280;25559;44.738;20.980;2022-09-01T03:26:30;100334.47;;;22.57;nan
39887;BME280;25559;44.738;20.980;2022-09-01T03:28:56;100322.66;;;22.50;nan
39887;BME280;25559;44.738;20.980;2022-09-01T03:31:22;100332.06;;;22.54;nan
39887;BME280;25559;44.738;20.980;2022-09-01T03:33:54;100318.00;;;22.53;nan
39887;BME280;25559;44.738;20.980;2022-09-01T03:36:27;100330.34;;;22.53;nan
39887;BME280;25559;44.738;20.980;2022-09-01T03:38:54;100325.06;;;22.53;nan
39887;BME280;25559;44.738;20.980;2022-09-01T03:41:26;100335.63;;;22.53;nan
39887;BME280;25559;44.738;20.980;2022-09-01T03:43:56;100320.66;;;22.53;nan
39887;BME280;25559;44.738;20.980;2022-09-01T03:46:27;100324.03;;;22.56;nan
39887;BME280;25559;44.738;20.980;2022-09-01T03:48:57;100321.50;;;22.54;nan
39887;BME280;25559;44.738;20.980;2022-09-01T03:51:27;100330.34;;;22.53;nan
39887;BME280;25559;44.738;20.980;2022-09-01T03:53:56;100331.31;;;22.52;nan
39887;BME280;25559;44.738;20.980;2022-09-01T03:56:23;100326.88;;;22.52;nan
39887;BME280;25559;44.738;20.980;2022-09-01T03:58:50;100314.00;;;22.48;nan
39887;BME280;25559;44.738;20.980;2022-09-01T04:01:17;100312.63;;;22.42;nan
39887;BME280;25559;44.738;20.980;2022-09-01T04:03:44;100315.38;;;22.41;nan
39887;BME280;25559;44.738;20.980;2022-09-01T04:06:14;100321.94;;;22.35;nan
39887;BME280;25559;44.738;20.980;2022-09-01T04:08:43;100315.44;;;22.26;nan
39887;BME280;25559;44.738;20.980;2022-09-01T04:11:15;100325.34;;;22.23;nan
39887;BME280;25559;44.738;20.980;2022-09-01T04:13:44;100321.47;;;22.15;nan
39887;BME280;25559;44.738;20.980;2022-09-01T04:16:26;100316.59;;;22.09;nan
39887;BME280;25559;44.738;20.980;2022-09-01T04:19:14;100314.28;;;22.05;nan
39887;BME280;25559;44.738;20.980;2022-09-01T04:21:46;100319.34;;;22.08;nan
39887;BME280;25559;44.738;20.980;2022-09-01T04:24:16;100319.75;;;22.14;nan
39887;BME280;25559;44.738;20.980;2022-09-01T04:26:46;100312.38;;;22.07;nan
39887;BME280;25559;44.738;20.980;2022-09-01T04:29:14;100316.59;;;22.09;nan
39887;BME280;25559;44.738;20.980;2022-09-01T04:31:44;100319.13;;;22.11;nan
39887;BME280;25559;44.738;20.980;2022-09-01T04:34:20;100347.19;;;22.12;nan
39887;BME280;25559;44.738;20.980;2022-09-01T04:36:47;100323.13;;;22.16;nan
39887;BME280;25559;44.738;20.980;2022-09-01T04:39:13;100316.06;;;22.17;nan
39887;BME280;25559;44.738;20.980;2022-09-01T04:41:41;100319.25;;;22.22;nan
39887;BME280;25559;44.738;20.980;2022-09-01T04:44:12;100320.84;;;22.25;nan
39887;BME280;25559;44.738;20.980;2022-09-01T04:46:41;100323.38;;;22.26;nan
39887;BME280;25559;44.738;20.980;2022-09-01T04:49:12;100313.75;;;22.25;nan
39887;BME280;25559;44.738;20.980;2022-09-01T04:51:46;100325.34;;;22.23;nan
39887;BME280;25559;44.738;20.980;2022-09-01T04:54:13;100329.16;;;22.18;nan
39887;BME280;25559;44.738;20.980;2022-09-01T04:56:42;100317.44;;;22.10;nan
39887;BME280;25559;44.738;20.980;2022-09-01T04:59:14;100324.94;;;22.03;nan
39887;BME280;25559;44.738;20.980;2022-09-01T05:01:41;100323.34;;;22.00;nan
39887;BME280;25559;44.738;20.980;2022-09-01T05:04:17;100321.75;;;21.98;nan
39887;BME280;25559;44.738;20.980;2022-09-01T05:06:47;100327.31;;;21.93;nan
39887;BME280;25559;44.738;20.980;2022-09-01T05:09:16;100314.25;;;21.92;nan
39887;BME280;25559;44.738;20.980;2022-09-01T05:12:14;100314.84;;;21.82;nan
39887;BME280;25559;44.738;20.980;2022-09-01T05:14:45;100310.22;;;21.86;nan
39887;BME280;25559;44.738;20.980;2022-09-01T05:17:15;100303.47;;;21.95;nan
39887;BME280;25559;44.738;20.980;2022-09-01T05:19:44;100299.25;;;21.92;nan
39887;BME280;25559;44.738;20.980;2022-09-01T05:22:13;100298.41;;;21.92;nan
39887;BME280;25559;44.738;20.980;2022-09-01T05:24:43;100294.16;;;21.89;nan
39887;BME280;25559;44.738;20.980;2022-09-01T05:27:09;100292.72;;;21.85;nan
39887;BME280;25559;44.738;20.980;2022-09-01T05:29:38;100288.06;;;21.89;nan
39887;BME280;25559;44.738;20.980;2022-09-01T05:32:06;100288.28;;;21.86;nan
39887;BME280;25559;44.738;20.980;2022-09-01T05:34:37;100290.59;;;21.90;nan
39887;BME280;25559;44.738;20.980;2022-09-01T05:37:06;100302.19;;;21.88;nan
39887;BME280;25559;44.738;20.980;2022-09-01T05:39:35;100286.03;;;21.79;nan
39887;BME280;25559;44.738;20.980;2022-09-01T05:42:03;100302.41;;;21.85;nan
39887;BME280;25559;44.738;20.980;2022-09-01T05:44:31;100298.94;;;21.84;nan
39887;BME280;25559;44.738;20.980;2022-09-01T05:46:58;100303.47;;;21.95;nan
39887;BME280;25559;44.738;20.980;2022-09-01T05:49:25;100313.41;;;22.04;nan
39887;BME280;25559;44.738;20.980;2022-09-01T05:51:54;100314.28;;;22.05;nan
39887;BME280;25559;44.738;20.980;2022-09-01T05:54:24;100320.50;;;22.04;nan
39887;BME280;25559;44.738;20.980;2022-09-01T05:56:53;100329.34;;;22.03;nan
39887;BME280;25559;44.738;20.980;2022-09-01T05:59:26;100315.31;;;22.02;nan
39887;BME280;25559;44.738;20.980;2022-09-01T06:01:59;100330.31;;;22.02;nan
39887;BME280;25559;44.738;20.980;2022-09-01T06:04:25;100312.03;;;21.98;nan
39887;BME280;25559;44.738;20.980;2022-09-01T06:06:54;100330.31;;;22.02;nan
39887;BME280;25559;44.738;20.980;2022-09-01T06:09:21;100326.28;;;22.09;nan
39887;BME280;25559;44.738;20.980;2022-09-01T06:11:50;100327.56;;;22.16;nan
39887;BME280;25559;44.738;20.980;2022-09-01T06:14:16;100343.31;;;22.17;nan
39887;BME280;25559;44.738;20.980;2022-09-01T06:16:45;100333.38;;;22.21;nan
39887;BME280;25559;44.738;20.980;2022-09-01T06:19:13;100337.19;;;22.30;nan
39887;BME280;25559;44.738;20.980;2022-09-01T06:21:43;100348.53;;;22.32;nan
39887;BME280;25559;44.738;20.980;2022-09-01T06:24:10;100344.28;;;22.42;nan
39887;BME280;25559;44.738;20.980;2022-09-01T06:26:36;100353.19;;;22.54;nan
39887;BME280;25559;44.738;20.980;2022-09-01T06:29:07;100354.25;;;22.64;nan
39887;BME280;25559;44.738;20.980;2022-09-01T06:31:40;100346.06;;;22.80;nan
39887;BME280;25559;44.738;20.980;2022-09-01T06:34:10;100355.47;;;22.97;nan
39887;BME280;25559;44.738;20.980;2022-09-01T06:36:40;100352.72;;;23.12;nan
39887;BME280;25559;44.738;20.980;2022-09-01T06:39:08;100353.00;;;23.20;nan
39887;BME280;25559;44.738;20.980;2022-09-01T06:41:38;100358.97;;;23.35;nan
39887;BME280;25559;44.738;20.980;2022-09-01T06:44:09;100370.44;;;23.35;nan
39887;BME280;25559;44.738;20.980;2022-09-01T06:46:41;100373.81;;;23.62;nan
39887;BME280;25559;44.738;20.980;2022-09-01T06:49:07;100385.06;;;23.76;nan
39887;BME280;25559;44.738;20.980;2022-09-01T06:51:36;100380.38;;;23.80;nan
39887;BME280;25559;44.738;20.980;2022-09-01T06:54:03;100375.09;;;23.80;nan
39887;BME280;25559;44.738;20.980;2022-09-01T06:56:32;100379.31;;;23.83;nan
39887;BME280;25559;44.738;20.980;2022-09-01T06:59:00;100384.50;;;23.84;nan
39887;BME280;25559;44.738;20.980;2022-09-01T07:01:29;100382.88;;;23.70;nan
39887;BME280;25559;44.738;20.980;2022-09-01T07:03:55;100403.28;;;23.68;nan
39887;BME280;25559;44.738;20.980;2022-09-01T07:06:30;100400.16;;;23.63;nan
39887;BME280;25559;44.738;20.980;2022-09-01T07:09:18;100402.91;;;23.62;nan
39887;BME280;25559;44.738;20.980;2022-09-01T07:12:05;100396.16;;;23.57;nan
39887;BME280;25559;44.738;20.980;2022-09-01T07:14:31;100406.13;;;23.54;nan
39887;BME280;25559;44.738;20.980;2022-09-01T07:16:57;100402.59;;;23.53;nan
39887;BME280;25559;44.738;20.980;2022-09-01T07:19:24;100403.69;;;23.51;nan
39887;BME280;25559;44.738;20.980;2022-09-01T07:21:57;100392.47;;;23.47;nan
39887;BME280;25559;44.738;20.980;2022-09-01T07:24:24;100400.50;;;23.46;nan
39887;BME280;25559;44.738;20.980;2022-09-01T07:27:19;100390.28;;;23.41;nan
39887;BME280;25559;44.738;20.980;2022-09-01T07:29:47;100392.19;;;23.39;nan
39887;BME280;25559;44.738;20.980;2022-09-01T07:32:15;100387.34;;;23.33;nan
39887;BME280;25559;44.738;20.980;2022-09-01T07:34:41;100389.66;;;23.37;nan
39887;BME280;25559;44.738;20.980;2022-09-01T07:37:08;100392.06;;;23.40;nan
39887;BME280;25559;44.738;20.980;2022-09-01T07:39:37;100393.66;;;23.43;nan
39887;BME280;25559;44.738;20.980;2022-09-01T07:42:26;100395.13;;;23.47;nan
39887;BME280;25559;44.738;20.980;2022-09-01T07:45:12;100397.75;;;23.47;nan
39887;BME280;25559;44.738;20.980;2022-09-01T07:47:59;100407.38;;;23.48;nan
39887;BME280;25559;44.738;20.980;2022-09-01T07:50:36;100400.19;;;23.50;nan
39887;BME280;25559;44.738;20.980;2022-09-01T07:53:03;100406.50;;;23.60;nan
39887;BME280;25559;44.738;20.980;2022-09-01T07:55:29;100407.88;;;23.66;nan
39887;BME280;25559;44.738;20.980;2022-09-01T07:57:58;100403.06;;;23.71;nan
39887;BME280;25559;44.738;20.980;2022-09-01T08:00:24;100401.19;;;23.73;nan
39887;BME280;25559;44.738;20.980;2022-09-01T08:02:56;100407.91;;;23.77;nan
39887;BME280;25559;44.738;20.980;2022-09-01T08:05:21;100429.50;;;23.84;nan
39887;BME280;25559;44.738;20.980;2022-09-01T08:07:51;100407.91;;;23.90;nan
39887;BME280;25559;44.738;20.980;2022-09-01T08:10:18;100405.38;;;23.89;nan
39887;BME280;25559;44.738;20.980;2022-09-01T08:12:43;100408.25;;;23.86;nan
39887;BME280;25559;44.738;20.980;2022-09-01T08:15:10;100416.25;;;23.84;nan
39887;BME280;25559;44.738;20.980;2022-09-01T08:17:37;100419.97;;;23.82;nan
39887;BME280;25559;44.738;20.980;2022-09-01T08:20:08;100424.19;;;23.84;nan
39887;BME280;25559;44.738;20.980;2022-09-01T08:23:04;100421.88;;;23.80;nan
39887;BME280;25559;44.738;20.980;2022-09-01T08:25:36;100424.41;;;23.81;nan
39887;BME280;25559;44.738;20.980;2022-09-01T08:28:04;100428.84;;;23.81;nan
39887;BME280;25559;44.738;20.980;2022-09-01T08:30:30;100431.38;;;23.82;nan
39887;BME280;25559;44.738;20.980;2022-09-01T08:33:01;100437.53;;;23.83;nan
39887;BME280;25559;44.738;20.980;2022-09-01T08:35:28;100441.97;;;23.82;nan
39887;BME280;25559;44.738;20.980;2022-09-01T08:37:56;100429.06;;;23.77;nan
39887;BME280;25559;44.738;20.980;2022-09-01T08:40:25;100441.13;;;23.82;nan
39887;BME280;25559;44.738;20.980;2022-09-01T08:47:58;100434.81;;;23.71;nan
39887;BME280;25559;44.738;20.980;2022-09-01T08:50:27;100446.38;;;23.70;nan
39887;BME280;25559;44.738;20.980;2022-09-01T08:53:25;100450.06;;;23.68;nan
39887;BME280;25559;44.738;20.980;2022-09-01T08:55:57;100440.31;;;23.68;nan
39887;BME280;25559;44.738;20.980;2022-09-01T08:58:24;100445.81;;;23.78;nan
39887;BME280;25559;44.738;20.980;2022-09-01T09:01:17;100435.13;;;23.80;nan
39887;BME280;25559;44.738;20.980;2022-09-01T09:04:11;100441.84;;;23.84;nan
39887;BME280;25559;44.738;20.980;2022-09-01T09:07:04;100461.69;;;23.78;nan
39887;BME280;25559;44.738;20.980;2022-09-01T09:09:42;100439.31;;;23.82;nan
39887;BME280;25559;44.738;20.980;2022-09-01T09:12:23;100454.25;;;23.83;nan
39887;BME280;25559;44.738;20.980;2022-09-01T09:17:38;100443.13;;;23.91;nan
39887;BME280;25559;44.738;20.980;2022-09-01T09:20:05;100435.72;;;23.96;nan
39887;BME280;25559;44.738;20.980;2022-09-01T09:22:31;100439.69;;;24.02;nan
39887;BME280;25559;44.738;20.980;2022-09-01T09:27:39;100448.16;;;24.07;nan
39887;BME280;25559;44.738;20.980;2022-09-01T09:30:22;100445.41;;;24.08;nan
39887;BME280;25559;44.738;20.980;2022-09-01T09:37:42;100474.09;;;24.02;nan
39887;BME280;25559;44.738;20.980;2022-09-01T09:45:27;100459.75;;;23.93;nan
39887;BME280;25559;44.738;20.980;2022-09-01T09:47:56;100453.59;;;23.92;nan
39887;BME280;25559;44.738;20.980;2022-09-01T09:50:31;100442.41;;;23.89;nan
39887;BME280;25559;44.738;20.980;2022-09-01T09:55:59;100446.13;;;23.86;nan
39887;BME280;25559;44.738;20.980;2022-09-01T09:58:34;100466.53;;;23.84;nan
39887;BME280;25559;44.738;20.980;2022-09-01T10:03:57;100439.53;;;23.79;nan
39887;BME280;25559;44.738;20.980;2022-09-01T10:06:42;100451.34;;;23.75;nan
39887;BME280;25559;44.738;20.980;2022-09-01T10:11:44;100465.34;;;23.64;nan
39887;BME280;25559;44.738;20.980;2022-09-01T10:14:20;100461.53;;;23.55;nan
39887;BME280;25559;44.738;20.980;2022-09-01T10:16:53;100448.44;;;23.54;nan
39887;BME280;25559;44.738;20.980;2022-09-01T10:19:23;100447.56;;;23.53;nan
39887;BME280;25559;44.738;20.980;2022-09-01T10:21:50;100442.38;;;23.52;nan
39887;BME280;25559;44.738;20.980;2022-09-01T10:24:31;100453.94;;;23.51;nan
39887;BME280;25559;44.738;20.980;2022-09-01T10:27:01;100446.34;;;23.46;nan
39887;BME280;25559;44.738;20.980;2022-09-01T10:29:40;100448.88;;;23.48;nan
39887;BME280;25559;44.738;20.980;2022-09-01T10:32:11;100453.50;;;23.57;nan
39887;BME280;25559;44.738;20.980;2022-09-01T10:34:40;100447.88;;;23.62;nan
39887;BME280;25559;44.738;20.980;2022-09-01T10:37:07;100461.94;;;23.62;nan
39887;BME280;25559;44.738;20.980;2022-09-01T10:39:33;100462.81;;;23.63;nan
39887;BME280;25559;44.738;20.980;2022-09-01T10:42:00;100476.34;;;23.58;nan
39887;BME280;25559;44.738;20.980;2022-09-01T10:44:54;100474.88;;;23.54;nan
39887;BME280;25559;44.738;20.980;2022-09-01T10:47:26;100462.59;;;23.53;nan
39887;BME280;25559;44.738;20.980;2022-09-01T10:50:27;100468.53;;;23.44;nan
39887;BME280;25559;44.738;20.980;2022-09-01T10:52:56;100474.88;;;23.41;nan
39887;BME280;25559;44.738;20.980;2022-09-01T10:55:31;100467.72;;;23.30;nan
39887;BME280;25559;44.738;20.980;2022-09-01T11:08:40;100476.22;;;23.10;nan
39887;BME280;25559;44.738;20.980;2022-09-01T11:13:47;100477.66;;;23.01;nan
39887;BME280;25559;44.738;20.980;2022-09-01T11:19:38;100470.25;;;22.93;nan
39887;BME280;25559;44.738;20.980;2022-09-01T11:22:08;100458.00;;;22.92;nan
39887;BME280;25559;44.738;20.980;2022-09-01T11:30:16;100478.69;;;22.98;nan
39887;BME280;25559;44.738;20.980;2022-09-01T11:32:45;100459.03;;;23.02;nan
39887;BME280;25559;44.738;20.980;2022-09-01T11:35:19;100463.50;;;23.02;nan
39887;BME280;25559;44.738;20.980;2022-09-01T11:37:50;100443.19;;;23.02;nan
39887;BME280;25559;44.738;20.980;2022-09-01T11:40:26;100440.88;;;23.11;nan
39887;BME280;25559;44.738;20.980;2022-09-01T11:42:53;100454.63;;;23.16;nan
39887;BME280;25559;44.738;20.980;2022-09-01T11:45:26;100453.66;;;23.17;nan
39887;BME280;25559;44.738;20.980;2022-09-01T11:48:01;100454.41;;;23.19;nan
39887;BME280;25559;44.738;20.980;2022-09-01T11:50:36;100461.16;;;23.23;nan
39887;BME280;25559;44.738;20.980;2022-09-01T11:55:36;100460.66;;;23.31;nan
39887;BME280;25559;44.738;20.980;2022-09-01T11:58:03;100462.22;;;23.33;nan
39887;BME280;25559;44.738;20.980;2022-09-01T12:00:35;100467.72;;;23.43;nan
39887;BME280;25559;44.738;20.980;2022-09-01T12:03:26;100466.41;;;23.49;nan
39887;BME280;25559;44.738;20.980;2022-09-01T12:06:01;100463.03;;;23.47;nan
39887;BME280;25559;44.738;20.980;2022-09-01T12:08:31;100470.63;;;23.51;nan
39887;BME280;25559;44.738;20.980;2022-09-01T12:11:08;100460.78;;;23.53;nan
39887;BME280;25559;44.738;20.980;2022-09-01T12:13:35;100469.88;;;23.62;nan
39887;BME280;25559;44.738;20.980;2022-09-01T12:16:04;100472.28;;;23.65;nan
39887;BME280;25559;44.738;20.980;2022-09-01T12:18:36;100469.97;;;23.60;nan
39887;BME280;25559;44.738;20.980;2022-09-01T12:21:06;100462.16;;;23.59;nan
39887;BME280;25559;44.738;20.980;2022-09-01T12:23:38;100475.72;;;23.54;nan
39887;BME280;25559;44.738;20.980;2022-09-01T12:26:27;100485.91;;;23.48;nan
39887;BME280;25559;44.738;20.980;2022-09-01T12:28:54;100479.13;;;23.44;nan
39887;BME280;25559;44.738;20.980;2022-09-01T12:31:23;100488.22;;;23.39;nan
39887;BME280;25559;44.738;20.980;2022-09-01T12:33:49;100474.50;;;23.34;nan
39887;BME280;25559;44.738;20.980;2022-09-01T12:36:30;100472.38;;;23.27;nan
39887;BME280;25559;44.738;20.980;2022-09-01T12:39:19;100470.28;;;23.19;nan
39887;BME280;25559;44.738;20.980;2022-09-01T12:41:59;100484.03;;;23.11;nan
39887;BME280;25559;44.738;20.980;2022-09-01T12:47:01;100483.72;;;23.16;nan
39887;BME280;25559;44.738;20.980;2022-09-01T12:49:41;100481.19;;;23.14;nan
39887;BME280;25559;44.738;20.980;2022-09-01T12:52:26;100468.91;;;23.13;nan
39887;BME280;25559;44.738;20.980;2022-09-01T12:57:35;100491.22;;;23.22;nan
39887;BME280;25559;44.738;20.980;2022-09-01T13:03:05;100493.97;;;23.20;nan
39887;BME280;25559;44.738;20.980;2022-09-01T13:05:35;100500.31;;;23.18;nan
39887;BME280;25559;44.738;20.980;2022-09-01T13:08:08;100476.94;;;23.12;nan
39887;BME280;25559;44.738;20.980;2022-09-01T13:10:41;100492.91;;;23.10;nan
39887;BME280;25559;44.738;20.980;2022-09-01T13:13:11;100482.41;;;23.09;nan
39887;BME280;25559;44.738;20.980;2022-09-01T13:15:42;100493.91;;;23.07;nan
39887;BME280;25559;44.738;20.980;2022-09-01T13:18:08;100500.50;;;23.02;nan
39887;BME280;25559;44.738;20.980;2022-09-01T13:20:34;100494.44;;;23.00;nan
39887;BME280;25559;44.738;20.980;2022-09-01T13:22:59;100493.41;;;23.02;nan
39887;BME280;25559;44.738;20.980;2022-09-01T13:25:25;100493.09;;;23.07;nan
39887;BME280;25559;44.738;20.980;2022-09-01T13:27:51;100482.41;;;23.09;nan
39887;BME280;25559;44.738;20.980;2022-09-01T13:30:21;100473.34;;;23.13;nan
39887;BME280;25559;44.738;20.980;2022-09-01T13:32:48;100468.69;;;23.16;nan
39887;BME280;25559;44.738;20.980;2022-09-01T13:35:19;100476.41;;;23.19;nan
39887;BME280;25559;44.738;20.980;2022-09-01T13:37:45;100478.84;;;23.22;nan
39887;BME280;25559;44.738;20.980;2022-09-01T13:40:12;100470.06;;;23.22;nan
39887;BME280;25559;44.738;20.980;2022-09-01T13:42:51;100478.72;;;23.24;nan
39887;BME280;25559;44.738;20.980;2022-09-01T13:45:19;100481.47;;;23.22;nan
39887;BME280;25559;44.738;20.980;2022-09-01T13:47:47;100505.28;;;23.22;nan
39887;BME280;25559;44.738;20.980;2022-09-01T13:50:16;100489.50;;;23.21;nan
39887;BME280;25559;44.738;20.980;2022-09-01T13:52:46;100481.06;;;23.16;nan
39887;BME280;25559;44.738;20.980;2022-09-01T13:55:15;100492.25;;;23.19;nan
39887;BME280;25559;44.738;20.980;2022-09-01T13:57:41;100488.03;;;23.17;nan
39887;BME280;25559;44.738;20.980;2022-09-01T14:00:12;100488.44;;;23.11;nan
39887;BME280;25559;44.738;20.980;2022-09-01T14:02:42;100489.44;;;23.10;nan
39887;BME280;25559;44.738;20.980;2022-09-01T14:05:21;100493.31;;;23.04;nan
39887;BME280;25559;44.738;20.980;2022-09-01T14:07:47;100491.81;;;23.00;nan
39887;BME280;25559;44.738;20.980;2022-09-01T14:10:13;100492.03;;;22.97;nan
39887;BME280;25559;44.738;20.980;2022-09-01T14:12:40;100499.44;;;22.92;nan
39887;BME280;25559;44.738;20.980;2022-09-01T14:15:08;100496.69;;;22.93;nan
39887;BME280;25559;44.738;20.980;2022-09-01T14:17:36;100496.03;;;22.89;nan
39887;BME280;25559;44.738;20.980;2022-09-01T14:20:04;100498.66;;;22.89;nan
39887;BME280;25559;44.738;20.980;2022-09-01T14:22:32;100500.47;;;22.89;nan